Tetsuun Maru No.1 — JL6712 — position and weather

sailwx.info

Track history (hours):
 
Tides and Currents Weather Stations Pressure Air Temp Water Temp Dewpoint Dewpoint Depression Visibility Wind Speed Wind Dir Waves Ship Positions

Tetsuun Maru No.1

Last reported at 2018-Jul-22 22:00 UTC. Time now 2018-Jul-22 22:00 UTC.
Position N 34°38' E 135°15'.

Length 76 m; draft 4.2 m.

Type: Cargo ship. MMSI: 431501765.

Date/timePositionNaut miles runAvg speedWind from/ knotsBaromVisibWave heightAir tempDewpointWater temp
2018-Jul-22 22:00N 34°38' E 135°15'0 0.0
2018-Jul-22 21:29N 34°39' E 135°15'0 0.0
2018-Jul-22 21:00N 34°38' E 135°15'0 0.0
2018-Jul-22 20:29N 34°38' E 135°15'0 0.0
2018-Jul-22 20:00N 34°39' E 135°15'0 0.1
2018-Jul-22 19:30N 34°39' E 135°15'0 0.0
2018-Jul-22 19:00N 34°39' E 135°15'0 0.1
2018-Jul-22 18:30N 34°39' E 135°15'0 0.0
2018-Jul-22 17:59N 34°38' E 135°15'0 0.0
2018-Jul-22 17:30N 34°38' E 135°15'0 0.0
2018-Jul-22 17:00N 34°39' E 135°15'0 0.0
2018-Jul-22 16:30N 34°38' E 135°15'0 0.0
2018-Jul-22 16:00N 34°38' E 135°15'0 0.0
2018-Jul-22 15:00N 34°38' E 135°15'0 0.0
2018-Jul-22 14:30N 34°38' E 135°15'0 0.0
2018-Jul-22 14:00N 34°38' E 135°15'0 0.0
2018-Jul-22 13:30N 34°38' E 135°15'0 0.0
2018-Jul-22 13:00N 34°38' E 135°15'0 0.0
2018-Jul-22 12:30N 34°38' E 135°15'0 0.0
2018-Jul-22 12:00N 34°38' E 135°15'0 0.0
2018-Jul-22 11:30N 34°38' E 135°15'0 0.1
2018-Jul-22 11:00N 34°38' E 135°15'4 8.7
2018-Jul-22 10:30N 34°36' E 135°10'510.9
2018-Jul-22 10:00N 34°36' E 135°04'710.1
2018-Jul-22 09:17N 34°36' E 134°55'310.5
2018-Jul-22 09:00N 34°34' E 134°52'611.0
2018-Jul-22 08:28N 34°32' E 134°45'611.8
2018-Jul-22 07:59N 34°30' E 134°39'612.1
2018-Jul-22 07:31N 34°28' E 134°32'  
2018-Jul-20 02:40N 34°35' E 134°50'412.8
2018-Jul-20 02:20N 34°36' E 134°55'412.5
2018-Jul-20 02:00N 34°38' E 134°60'510.5
2018-Jul-20 01:31N 34°36' E 135°05'611.5
2018-Jul-20 01:01N 34°37' E 135°12'5 9.7
2018-Jul-20 00:30N 34°41' E 135°16'0 0.0
2018-Jul-20 00:01N 34°41' E 135°16'0 0.0
2018-Jul-19 23:31N 34°41' E 135°16'2 4.2
2018-Jul-19 23:01N 34°41' E 135°13'0 0.3
2018-Jul-19 22:30N 34°41' E 135°13'0 0.0
2018-Jul-19 22:00N 34°41' E 135°13'0 0.0
2018-Jul-19 21:29N 34°41' E 135°13'0 0.0
2018-Jul-19 21:00N 34°41' E 135°13'0 0.0
2018-Jul-19 20:30N 34°41' E 135°13'0 0.0
2018-Jul-19 20:00N 34°41' E 135°13'0 0.0
2018-Jul-19 19:30N 34°41' E 135°13'0 0.0
2018-Jul-19 19:01N 34°41' E 135°13'0 0.0
2018-Jul-19 18:30N 34°41' E 135°13'0 0.0
2018-Jul-19 18:00N 34°41' E 135°13'0 0.0
2018-Jul-19 17:30N 34°41' E 135°13'0 0.0
2018-Jul-19 17:00N 34°41' E 135°13'0 0.0
2018-Jul-19 16:30N 34°41' E 135°13'0 0.0
2018-Jul-19 16:00N 34°41' E 135°13'0 0.0
2018-Jul-19 15:30N 34°41' E 135°13'0 0.0
2018-Jul-19 15:00N 34°41' E 135°13'0 0.0
2018-Jul-19 14:00N 34°41' E 135°13'0 0.0
2018-Jul-19 13:30N 34°41' E 135°13'0 0.0
2018-Jul-19 13:01N 34°41' E 135°13'0 0.0
2018-Jul-19 12:30N 34°41' E 135°13'0 0.0
2018-Jul-19 12:01N 34°41' E 135°13'0 0.0
2018-Jul-19 11:30N 34°41' E 135°13'0 0.0
2018-Jul-19 11:01N 34°41' E 135°13'0 0.0
2018-Jul-19 10:28N 34°41' E 135°13'0 0.0
2018-Jul-19 10:00N 34°41' E 135°13'0 0.0
2018-Jul-19 09:31N 34°41' E 135°13'0 0.0
2018-Jul-19 09:00N 34°41' E 135°13'0 0.0
2018-Jul-19 08:31N 34°41' E 135°13'0 0.0
2018-Jul-19 08:01N 34°41' E 135°13'0 0.0
2018-Jul-19 07:31N 34°41' E 135°13'0 0.0
2018-Jul-19 07:01N 34°41' E 135°13'0 0.0
2018-Jul-19 06:29N 34°41' E 135°13'0 0.0
2018-Jul-19 06:01N 34°41' E 135°13'0 0.0
2018-Jul-19 05:30N 34°41' E 135°13'0 0.0
2018-Jul-19 05:00N 34°41' E 135°13'0 0.0
2018-Jul-19 04:31N 34°41' E 135°13'0 0.0
2018-Jul-19 04:00N 34°41' E 135°13'0 0.0
2018-Jul-19 03:30N 34°41' E 135°13'0 0.0
2018-Jul-19 02:58N 34°41' E 135°13'0 0.0
2018-Jul-19 02:30N 34°41' E 135°13'0 0.0
2018-Jul-19 02:00N 34°41' E 135°13'3 5.9
2018-Jul-19 01:30N 34°41' E 135°17'0 0.5
2018-Jul-19 01:01N 34°41' E 135°17'3 5.0
2018-Jul-19 00:31N 34°40' E 135°14'0 0.0
2018-Jul-19 00:00N 34°40' E 135°14'1 1.7
2018-Jul-18 23:30N 34°40' E 135°15'1 1.6
2018-Jul-18 23:00N 34°39' E 135°15'0 0.0
2018-Jul-18 22:31N 34°39' E 135°15'0 0.0
2018-Jul-18 22:00N 34°39' E 135°15'0 0.0
2018-Jul-18 21:30N 34°39' E 135°15'0 0.0
2018-Jul-18 21:00N 34°39' E 135°15'0 0.2
2018-Jul-18 20:31N 34°39' E 135°15'0 0.0
2018-Jul-18 20:01N 34°39' E 135°15'0 0.0
2018-Jul-18 19:30N 34°39' E 135°15'0 0.1
2018-Jul-18 19:01N 34°39' E 135°15'0 0.1
2018-Jul-18 18:30N 34°39' E 135°15'0 0.0
2018-Jul-18 17:59N 34°39' E 135°15'0 0.1
2018-Jul-18 17:30N 34°39' E 135°15'0 0.0
2018-Jul-18 17:01N 34°39' E 135°15'1 2.9
2018-Jul-18 16:30N 34°38' E 135°14'611.8
2018-Jul-18 16:01N 34°36' E 135°07'11 9.9
2018-Jul-18 14:56N 34°35' E 134°54'410.2
2018-Jul-18 14:30N 34°33' E 134°49'1211.9
2018-Jul-18 13:29N 34°29' E 134°36'  
2018-Jul-16 08:57N 34°25' E 134°11'811.0
2018-Jul-16 08:12N 34°25' E 134°21'2911.6
2018-Jul-16 05:43N 34°36' E 134°54'210.1
2018-Jul-16 05:29N 34°37' E 134°57'5 9.4
2018-Jul-16 05:00N 34°37' E 135°02'510.4
2018-Jul-16 04:30N 34°36' E 135°08'612.3
2018-Jul-16 04:01N 34°38' E 135°15'2 3.8
2018-Jul-16 03:29N 34°40' E 135°14'0 0.0
2018-Jul-16 03:00N 34°40' E 135°14'1 2.4
2018-Jul-16 02:31N 34°40' E 135°15'1 1.5
2018-Jul-16 02:00N 34°40' E 135°16'0 0.2
2018-Jul-16 01:30N 34°41' E 135°16'1 1.1
2018-Jul-16 01:00N 34°41' E 135°17'0 0.1
2018-Jul-16 00:30N 34°41' E 135°17'3 5.0
2018-Jul-15 23:59N 34°40' E 135°14'0 0.0
2018-Jul-15 23:30N 34°40' E 135°14'0 1.0
2018-Jul-15 23:00N 34°40' E 135°15'3 6.8
2018-Jul-15 22:31N 34°38' E 135°12'3 5.0
2018-Jul-15 22:00N 34°40' E 135°11'0 0.0
2018-Jul-15 21:30N 34°40' E 135°11'0 0.0
2018-Jul-15 21:00N 34°40' E 135°11'0 0.0
2018-Jul-15 20:30N 34°40' E 135°11'0 0.0
2018-Jul-15 20:00N 34°40' E 135°11'0 0.0
2018-Jul-15 19:30N 34°40' E 135°11'0 0.0
2018-Jul-15 19:00N 34°40' E 135°11'0 0.0
2018-Jul-15 18:30N 34°40' E 135°11'0 0.0
2018-Jul-15 17:59N 34°40' E 135°11'0 0.0
2018-Jul-15 17:30N 34°40' E 135°11'0 0.0
2018-Jul-15 17:00N 34°40' E 135°11'0 0.0
2018-Jul-15 16:30N 34°40' E 135°11'0 0.0
2018-Jul-15 16:00N 34°40' E 135°11'0 0.0
2018-Jul-15 15:30N 34°40' E 135°11'0 0.0
2018-Jul-15 15:00N 34°40' E 135°11'0 0.0
2018-Jul-15 14:30N 34°40' E 135°11'0 0.0
2018-Jul-15 14:00N 34°40' E 135°11'0 0.0
2018-Jul-15 13:30N 34°40' E 135°11'0 0.0
2018-Jul-15 13:00N 34°40' E 135°11'0 0.0
2018-Jul-15 12:30N 34°40' E 135°11'0 0.0
2018-Jul-15 12:00N 34°40' E 135°11'0 0.0
2018-Jul-15 11:30N 34°40' E 135°11'0 0.0
2018-Jul-15 11:00N 34°40' E 135°11'0 0.0
2018-Jul-15 10:30N 34°40' E 135°11'0 0.0
2018-Jul-15 10:00N 34°40' E 135°11'0 0.0
2018-Jul-15 09:30N 34°40' E 135°11'0 0.0
2018-Jul-15 09:00N 34°40' E 135°11'0 0.0
2018-Jul-15 08:30N 34°40' E 135°11'0 0.0
2018-Jul-15 08:00N 34°40' E 135°11'0 0.0
2018-Jul-15 07:30N 34°40' E 135°11'0 0.0
2018-Jul-15 06:59N 34°40' E 135°11'0 0.0
2018-Jul-15 06:30N 34°40' E 135°11'0 0.0
2018-Jul-15 06:00N 34°40' E 135°11'0 0.0
2018-Jul-15 05:29N 34°40' E 135°11'0 0.0
2018-Jul-15 05:00N 34°40' E 135°11'0 0.0
2018-Jul-15 04:30N 34°40' E 135°11'0 0.0
2018-Jul-15 04:00N 34°40' E 135°11'0 0.0
2018-Jul-15 03:30N 34°40' E 135°11'0 0.0
2018-Jul-15 03:00N 34°40' E 135°11'0 0.0
2018-Jul-15 02:30N 34°40' E 135°11'0 0.0
2018-Jul-15 02:00N 34°40' E 135°11'0 0.0
2018-Jul-15 01:30N 34°40' E 135°11'0 0.0
2018-Jul-15 01:00N 34°40' E 135°11'0 0.0
2018-Jul-15 00:30N 34°40' E 135°11'0 0.0
2018-Jul-15 00:00N 34°40' E 135°11'0 0.0
2018-Jul-14 23:30N 34°40' E 135°11'0 0.0
2018-Jul-14 23:00N 34°40' E 135°11'0 0.0
2018-Jul-14 22:30N 34°40' E 135°11'0 0.0
2018-Jul-14 21:59N 34°40' E 135°11'0 0.0
2018-Jul-14 21:26N 34°40' E 135°11'0 0.0
2018-Jul-14 21:00N 34°40' E 135°11'0 0.0
2018-Jul-14 20:30N 34°40' E 135°11'0 0.0
2018-Jul-14 20:00N 34°40' E 135°11'0 0.0
2018-Jul-14 19:30N 34°40' E 135°11'0 0.0
2018-Jul-14 19:00N 34°40' E 135°11'0 0.0
2018-Jul-14 18:30N 34°40' E 135°11'0 0.0
2018-Jul-14 18:00N 34°40' E 135°11'0 0.0
2018-Jul-14 17:30N 34°40' E 135°11'0 0.0
2018-Jul-14 16:59N 34°40' E 135°11'0 0.0
2018-Jul-14 16:30N 34°40' E 135°11'0 0.0
2018-Jul-14 16:00N 34°40' E 135°11'0 0.0
2018-Jul-14 15:30N 34°40' E 135°11'0 0.0
2018-Jul-14 15:00N 34°40' E 135°11'0 0.0
2018-Jul-14 14:30N 34°40' E 135°11'0 0.0
2018-Jul-14 13:29N 34°40' E 135°11'0 0.0
2018-Jul-14 13:00N 34°40' E 135°11'0 0.0
2018-Jul-14 12:30N 34°40' E 135°11'0 0.0
2018-Jul-14 12:00N 34°40' E 135°11'0 0.0
2018-Jul-14 11:30N 34°40' E 135°11'0 0.0
2018-Jul-14 11:00N 34°40' E 135°11'0 0.0
2018-Jul-14 10:30N 34°40' E 135°11'0 0.0
2018-Jul-14 09:59N 34°40' E 135°11'0 0.0
2018-Jul-14 09:30N 34°40' E 135°11'0 0.0
2018-Jul-14 09:00N 34°40' E 135°11'0 0.0
2018-Jul-14 08:30N 34°40' E 135°11'3 5.0
2018-Jul-14 08:00N 34°38' E 135°10'612.2
2018-Jul-14 07:30N 34°36' E 135°03'815.0
2018-Jul-14 06:57N 34°35' E 134°53'714.6
2018-Jul-14 06:30N 34°32' E 134°46'713.3
2018-Jul-14 05:58N 34°30' E 134°38'1613.1
2018-Jul-14 04:46N 34°24' E 134°20'  
Track history (hours):
 
Tides and Currents Weather Stations Pressure Air Temp Water Temp Dewpoint Dewpoint Depression Visibility Wind Speed Wind Dir Waves Ship Positions

Tetsuun Maru No.1

Last reported at 2018-Jul-22 22:00 UTC. Time now 2018-Jul-22 22:00 UTC.
Position N 34°38' E 135°15'.

Length 76 m; draft 4.2 m.

Type: Cargo ship. MMSI: 431501765.

Date/timePositionNaut miles runAvg speedWind from/ knotsBaromVisibWave heightAir tempDewpointWater temp
2018-Jul-22 22:00N 34°38' E 135°15'0 0.0
2018-Jul-22 21:29N 34°39' E 135°15'0 0.0
2018-Jul-22 21:00N 34°38' E 135°15'0 0.0
2018-Jul-22 20:29N 34°38' E 135°15'0 0.0
2018-Jul-22 20:00N 34°39' E 135°15'0 0.1
2018-Jul-22 19:30N 34°39' E 135°15'0 0.0
2018-Jul-22 19:00N 34°39' E 135°15'0 0.1
2018-Jul-22 18:30N 34°39' E 135°15'0 0.0
2018-Jul-22 17:59N 34°38' E 135°15'0 0.0
2018-Jul-22 17:30N 34°38' E 135°15'0 0.0
2018-Jul-22 17:00N 34°39' E 135°15'0 0.0
2018-Jul-22 16:30N 34°38' E 135°15'0 0.0
2018-Jul-22 16:00N 34°38' E 135°15'0 0.0
2018-Jul-22 15:00N 34°38' E 135°15'0 0.0
2018-Jul-22 14:30N 34°38' E 135°15'0 0.0
2018-Jul-22 14:00N 34°38' E 135°15'0 0.0
2018-Jul-22 13:30N 34°38' E 135°15'0 0.0
2018-Jul-22 13:00N 34°38' E 135°15'0 0.0
2018-Jul-22 12:30N 34°38' E 135°15'0 0.0
2018-Jul-22 12:00N 34°38' E 135°15'0 0.0
2018-Jul-22 11:30N 34°38' E 135°15'0 0.1
2018-Jul-22 11:00N 34°38' E 135°15'4 8.7
2018-Jul-22 10:30N 34°36' E 135°10'510.9
2018-Jul-22 10:00N 34°36' E 135°04'710.1
2018-Jul-22 09:17N 34°36' E 134°55'310.5
2018-Jul-22 09:00N 34°34' E 134°52'611.0
2018-Jul-22 08:28N 34°32' E 134°45'611.8
2018-Jul-22 07:59N 34°30' E 134°39'612.1
2018-Jul-22 07:31N 34°28' E 134°32'  
2018-Jul-20 02:40N 34°35' E 134°50'412.8
2018-Jul-20 02:20N 34°36' E 134°55'412.5
2018-Jul-20 02:00N 34°38' E 134°60'510.5
2018-Jul-20 01:31N 34°36' E 135°05'611.5
2018-Jul-20 01:01N 34°37' E 135°12'5 9.7
2018-Jul-20 00:30N 34°41' E 135°16'0 0.0
2018-Jul-20 00:01N 34°41' E 135°16'0 0.0
2018-Jul-19 23:31N 34°41' E 135°16'2 4.2
2018-Jul-19 23:01N 34°41' E 135°13'0 0.3
2018-Jul-19 22:30N 34°41' E 135°13'0 0.0
2018-Jul-19 22:00N 34°41' E 135°13'0 0.0
2018-Jul-19 21:29N 34°41' E 135°13'0 0.0
2018-Jul-19 21:00N 34°41' E 135°13'0 0.0
2018-Jul-19 20:30N 34°41' E 135°13'0 0.0
2018-Jul-19 20:00N 34°41' E 135°13'0 0.0
2018-Jul-19 19:30N 34°41' E 135°13'0 0.0
2018-Jul-19 19:01N 34°41' E 135°13'0 0.0
2018-Jul-19 18:30N 34°41' E 135°13'0 0.0
2018-Jul-19 18:00N 34°41' E 135°13'0 0.0
2018-Jul-19 17:30N 34°41' E 135°13'0 0.0
2018-Jul-19 17:00N 34°41' E 135°13'0 0.0
2018-Jul-19 16:30N 34°41' E 135°13'0 0.0
2018-Jul-19 16:00N 34°41' E 135°13'0 0.0
2018-Jul-19 15:30N 34°41' E 135°13'0 0.0
2018-Jul-19 15:00N 34°41' E 135°13'0 0.0
2018-Jul-19 14:00N 34°41' E 135°13'0 0.0
2018-Jul-19 13:30N 34°41' E 135°13'0 0.0
2018-Jul-19 13:01N 34°41' E 135°13'0 0.0
2018-Jul-19 12:30N 34°41' E 135°13'0 0.0
2018-Jul-19 12:01N 34°41' E 135°13'0 0.0
2018-Jul-19 11:30N 34°41' E 135°13'0 0.0
2018-Jul-19 11:01N 34°41' E 135°13'0 0.0
2018-Jul-19 10:28N 34°41' E 135°13'0 0.0
2018-Jul-19 10:00N 34°41' E 135°13'0 0.0
2018-Jul-19 09:31N 34°41' E 135°13'0 0.0
2018-Jul-19 09:00N 34°41' E 135°13'0 0.0
2018-Jul-19 08:31N 34°41' E 135°13'0 0.0
2018-Jul-19 08:01N 34°41' E 135°13'0 0.0
2018-Jul-19 07:31N 34°41' E 135°13'0 0.0
2018-Jul-19 07:01N 34°41' E 135°13'0 0.0
2018-Jul-19 06:29N 34°41' E 135°13'0 0.0
2018-Jul-19 06:01N 34°41' E 135°13'0 0.0
2018-Jul-19 05:30N 34°41' E 135°13'0 0.0
2018-Jul-19 05:00N 34°41' E 135°13'0 0.0
2018-Jul-19 04:31N 34°41' E 135°13'0 0.0
2018-Jul-19 04:00N 34°41' E 135°13'0 0.0
2018-Jul-19 03:30N 34°41' E 135°13'0 0.0
2018-Jul-19 02:58N 34°41' E 135°13'0 0.0
2018-Jul-19 02:30N 34°41' E 135°13'0 0.0
2018-Jul-19 02:00N 34°41' E 135°13'3 5.9
2018-Jul-19 01:30N 34°41' E 135°17'0 0.5
2018-Jul-19 01:01N 34°41' E 135°17'3 5.0
2018-Jul-19 00:31N 34°40' E 135°14'0 0.0
2018-Jul-19 00:00N 34°40' E 135°14'1 1.7
2018-Jul-18 23:30N 34°40' E 135°15'1 1.6
2018-Jul-18 23:00N 34°39' E 135°15'0 0.0
2018-Jul-18 22:31N 34°39' E 135°15'0 0.0
2018-Jul-18 22:00N 34°39' E 135°15'0 0.0
2018-Jul-18 21:30N 34°39' E 135°15'0 0.0
2018-Jul-18 21:00N 34°39' E 135°15'0 0.2
2018-Jul-18 20:31N 34°39' E 135°15'0 0.0
2018-Jul-18 20:01N 34°39' E 135°15'0 0.0
2018-Jul-18 19:30N 34°39' E 135°15'0 0.1
2018-Jul-18 19:01N 34°39' E 135°15'0 0.1
2018-Jul-18 18:30N 34°39' E 135°15'0 0.0
2018-Jul-18 17:59N 34°39' E 135°15'0 0.1
2018-Jul-18 17:30N 34°39' E 135°15'0 0.0
2018-Jul-18 17:01N 34°39' E 135°15'1 2.9
2018-Jul-18 16:30N 34°38' E 135°14'611.8
2018-Jul-18 16:01N 34°36' E 135°07'11 9.9
2018-Jul-18 14:56N 34°35' E 134°54'410.2
2018-Jul-18 14:30N 34°33' E 134°49'1211.9
2018-Jul-18 13:29N 34°29' E 134°36'  
2018-Jul-16 08:57N 34°25' E 134°11'811.0
2018-Jul-16 08:12N 34°25' E 134°21'2911.6
2018-Jul-16 05:43N 34°36' E 134°54'210.1
2018-Jul-16 05:29N 34°37' E 134°57'5 9.4
2018-Jul-16 05:00N 34°37' E 135°02'510.4
2018-Jul-16 04:30N 34°36' E 135°08'612.3
2018-Jul-16 04:01N 34°38' E 135°15'2 3.8
2018-Jul-16 03:29N 34°40' E 135°14'0 0.0
2018-Jul-16 03:00N 34°40' E 135°14'1 2.4
2018-Jul-16 02:31N 34°40' E 135°15'1 1.5
2018-Jul-16 02:00N 34°40' E 135°16'0 0.2
2018-Jul-16 01:30N 34°41' E 135°16'1 1.1
2018-Jul-16 01:00N 34°41' E 135°17'0 0.1
2018-Jul-16 00:30N 34°41' E 135°17'3 5.0
2018-Jul-15 23:59N 34°40' E 135°14'0 0.0
2018-Jul-15 23:30N 34°40' E 135°14'0 1.0
2018-Jul-15 23:00N 34°40' E 135°15'3 6.8
2018-Jul-15 22:31N 34°38' E 135°12'3 5.0
2018-Jul-15 22:00N 34°40' E 135°11'0 0.0
2018-Jul-15 21:30N 34°40' E 135°11'0 0.0
2018-Jul-15 21:00N 34°40' E 135°11'0 0.0
2018-Jul-15 20:30N 34°40' E 135°11'0 0.0
2018-Jul-15 20:00N 34°40' E 135°11'0 0.0
2018-Jul-15 19:30N 34°40' E 135°11'0 0.0
2018-Jul-15 19:00N 34°40' E 135°11'0 0.0
2018-Jul-15 18:30N 34°40' E 135°11'0 0.0
2018-Jul-15 17:59N 34°40' E 135°11'0 0.0
2018-Jul-15 17:30N 34°40' E 135°11'0 0.0
2018-Jul-15 17:00N 34°40' E 135°11'0 0.0
2018-Jul-15 16:30N 34°40' E 135°11'0 0.0
2018-Jul-15 16:00N 34°40' E 135°11'0 0.0
2018-Jul-15 15:30N 34°40' E 135°11'0 0.0
2018-Jul-15 15:00N 34°40' E 135°11'0 0.0
2018-Jul-15 14:30N 34°40' E 135°11'0 0.0
2018-Jul-15 14:00N 34°40' E 135°11'0 0.0
2018-Jul-15 13:30N 34°40' E 135°11'0 0.0
2018-Jul-15 13:00N 34°40' E 135°11'0 0.0
2018-Jul-15 12:30N 34°40' E 135°11'0 0.0
2018-Jul-15 12:00N 34°40' E 135°11'0 0.0
2018-Jul-15 11:30N 34°40' E 135°11'0 0.0
2018-Jul-15 11:00N 34°40' E 135°11'0 0.0
2018-Jul-15 10:30N 34°40' E 135°11'0 0.0
2018-Jul-15 10:00N 34°40' E 135°11'0 0.0
2018-Jul-15 09:30N 34°40' E 135°11'0 0.0
2018-Jul-15 09:00N 34°40' E 135°11'0 0.0
2018-Jul-15 08:30N 34°40' E 135°11'0 0.0
2018-Jul-15 08:00N 34°40' E 135°11'0 0.0
2018-Jul-15 07:30N 34°40' E 135°11'0 0.0
2018-Jul-15 06:59N 34°40' E 135°11'0 0.0
2018-Jul-15 06:30N 34°40' E 135°11'0 0.0
2018-Jul-15 06:00N 34°40' E 135°11'0 0.0
2018-Jul-15 05:29N 34°40' E 135°11'0 0.0
2018-Jul-15 05:00N 34°40' E 135°11'0 0.0
2018-Jul-15 04:30N 34°40' E 135°11'0 0.0
2018-Jul-15 04:00N 34°40' E 135°11'0 0.0
2018-Jul-15 03:30N 34°40' E 135°11'0 0.0
2018-Jul-15 03:00N 34°40' E 135°11'0 0.0
2018-Jul-15 02:30N 34°40' E 135°11'0 0.0
2018-Jul-15 02:00N 34°40' E 135°11'0 0.0
2018-Jul-15 01:30N 34°40' E 135°11'0 0.0
2018-Jul-15 01:00N 34°40' E 135°11'0 0.0
2018-Jul-15 00:30N 34°40' E 135°11'0 0.0
2018-Jul-15 00:00N 34°40' E 135°11'0 0.0
2018-Jul-14 23:30N 34°40' E 135°11'0 0.0
2018-Jul-14 23:00N 34°40' E 135°11'0 0.0
2018-Jul-14 22:30N 34°40' E 135°11'0 0.0
2018-Jul-14 21:59N 34°40' E 135°11'0 0.0
2018-Jul-14 21:26N 34°40' E 135°11'0 0.0
2018-Jul-14 21:00N 34°40' E 135°11'0 0.0
2018-Jul-14 20:30N 34°40' E 135°11'0 0.0
2018-Jul-14 20:00N 34°40' E 135°11'0 0.0
2018-Jul-14 19:30N 34°40' E 135°11'0 0.0
2018-Jul-14 19:00N 34°40' E 135°11'0 0.0
2018-Jul-14 18:30N 34°40' E 135°11'0 0.0
2018-Jul-14 18:00N 34°40' E 135°11'0 0.0
2018-Jul-14 17:30N 34°40' E 135°11'0 0.0
2018-Jul-14 16:59N 34°40' E 135°11'0 0.0
2018-Jul-14 16:30N 34°40' E 135°11'0 0.0
2018-Jul-14 16:00N 34°40' E 135°11'0 0.0
2018-Jul-14 15:30N 34°40' E 135°11'0 0.0
2018-Jul-14 15:00N 34°40' E 135°11'0 0.0
2018-Jul-14 14:30N 34°40' E 135°11'0 0.0
2018-Jul-14 13:29N 34°40' E 135°11'0 0.0
2018-Jul-14 13:00N 34°40' E 135°11'0 0.0
2018-Jul-14 12:30N 34°40' E 135°11'0 0.0
2018-Jul-14 12:00N 34°40' E 135°11'0 0.0
2018-Jul-14 11:30N 34°40' E 135°11'0 0.0
2018-Jul-14 11:00N 34°40' E 135°11'0 0.0
2018-Jul-14 10:30N 34°40' E 135°11'0 0.0
2018-Jul-14 09:59N 34°40' E 135°11'0 0.0
2018-Jul-14 09:30N 34°40' E 135°11'0 0.0
2018-Jul-14 09:00N 34°40' E 135°11'0 0.0
2018-Jul-14 08:30N 34°40' E 135°11'3 5.0
2018-Jul-14 08:00N 34°38' E 135°10'612.2
2018-Jul-14 07:30N 34°36' E 135°03'815.0
2018-Jul-14 06:57N 34°35' E 134°53'714.6
2018-Jul-14 06:30N 34°32' E 134°46'713.3
2018-Jul-14 05:58N 34°30' E 134°38'1613.1
2018-Jul-14 04:46N 34°24' E 134°20'  

Dump ship's entire track history